createdAt,value
2023-10-10T04:15:30.981Z,14.47
2023-10-10T04:16:31.026Z,14.43
2023-10-10T04:17:31.026Z,14.43
2023-10-10T04:18:30.933Z,14.43
2023-10-10T04:19:30.916Z,14.43
2023-10-10T04:20:30.929Z,14.44
2023-10-10T04:21:30.903Z,14.46
2023-10-10T04:22:30.858Z,14.44
2023-10-10T04:23:30.915Z,14.46
2023-10-10T04:24:30.842Z,14.46
2023-10-10T04:25:30.837Z,14.46
2023-10-10T04:26:30.831Z,14.46
2023-10-10T04:27:30.798Z,14.46
2023-10-10T04:28:30.795Z,14.46
2023-10-10T04:29:30.793Z,14.43
2023-10-10T04:30:30.747Z,14.42
2023-10-10T04:31:30.759Z,14.43
2023-10-10T04:32:30.762Z,14.42
2023-10-10T04:33:30.748Z,14.42
2023-10-10T04:34:30.705Z,14.42
2023-10-10T04:35:30.722Z,14.42
2023-10-10T04:36:30.686Z,14.38
2023-10-10T04:37:30.676Z,14.37
2023-10-10T04:38:30.659Z,14.35
2023-10-10T04:39:30.645Z,14.37
2023-10-10T04:40:30.622Z,14.38
2023-10-10T04:41:30.641Z,14.38
2023-10-10T04:42:30.608Z,14.39
2023-10-10T04:43:30.586Z,14.39
2023-10-10T04:44:30.614Z,14.43
2023-10-10T04:45:30.565Z,14.43
2023-10-10T04:46:30.545Z,14.43
2023-10-10T04:47:30.575Z,14.42
2023-10-10T04:48:30.557Z,14.42
2023-10-10T04:49:30.514Z,14.42
2023-10-10T04:50:30.524Z,14.42
2023-10-10T04:51:30.494Z,14.39
2023-10-10T04:52:30.474Z,14.39
2023-10-10T04:53:30.468Z,14.38
2023-10-10T04:54:30.441Z,14.38
2023-10-10T04:55:30.432Z,14.38
2023-10-10T04:56:30.459Z,14.37
2023-10-10T04:57:30.402Z,14.38
2023-10-10T04:58:30.387Z,14.38
2023-10-10T04:59:30.428Z,14.37
2023-10-10T05:00:30.368Z,14.39
2023-10-10T05:01:30.396Z,14.39
2023-10-10T05:02:30.636Z,14.42
2023-10-10T05:03:30.376Z,14.42
2023-10-10T05:04:30.371Z,14.42
2023-10-10T05:05:30.372Z,14.39
2023-10-10T05:06:30.289Z,14.38
2023-10-10T05:07:30.282Z,14.42
2023-10-10T05:08:30.342Z,14.39
2023-10-10T05:09:30.263Z,14.42
2023-10-10T05:10:30.239Z,14.43
2023-10-10T05:11:30.260Z,14.39
2023-10-10T05:12:30.208Z,14.39
2023-10-10T05:13:30.227Z,14.42
2023-10-10T05:14:30.231Z,14.42
2023-10-10T05:15:30.179Z,14.43
2023-10-10T05:16:30.219Z,14.43
2023-10-10T05:17:30.289Z,14.43
2023-10-10T05:18:30.157Z,14.42
2023-10-10T05:19:30.124Z,14.43
2023-10-10T05:20:30.220Z,14.42
2023-10-10T05:21:30.088Z,14.39
2023-10-10T05:22:30.071Z,14.42
2023-10-10T05:23:30.083Z,14.42
2023-10-10T05:24:30.067Z,14.42
2023-10-10T05:25:30.032Z,14.42
2023-10-10T05:26:30.049Z,14.42
2023-10-10T05:27:30.000Z,14.38
2023-10-10T05:28:29.988Z,14.39
2023-10-10T05:29:30.030Z,14.39
2023-10-10T05:30:29.977Z,14.38
2023-10-10T05:31:30.020Z,14.38
2023-10-10T05:32:30.076Z,14.35
2023-10-10T05:33:30.042Z,14.35
2023-10-10T05:34:29.985Z,14.37
2023-10-10T05:35:30.010Z,14.37
2023-10-10T05:36:29.994Z,14.38
2023-10-10T05:37:29.913Z,14.38
2023-10-10T05:38:29.938Z,14.39
2023-10-10T05:39:29.850Z,14.42
2023-10-10T05:40:29.828Z,14.42
2023-10-10T05:41:29.851Z,14.42
2023-10-10T05:42:29.806Z,14.44
2023-10-10T05:43:29.815Z,14.44
2023-10-10T05:44:29.786Z,14.44
2023-10-10T05:45:29.797Z,14.44
2023-10-10T05:46:29.759Z,14.47
2023-10-10T05:47:29.852Z,14.47
2023-10-10T05:48:29.804Z,14.47
2023-10-10T05:49:31.909Z,14.47
2023-10-10T05:50:29.744Z,14.49
2023-10-10T05:51:29.685Z,14.50
2023-10-10T05:52:29.685Z,14.53
2023-10-10T05:53:29.693Z,14.53
2023-10-10T05:54:29.641Z,14.54
2023-10-10T05:55:29.634Z,14.54
2023-10-10T05:56:29.656Z,14.57
2023-10-10T05:57:29.671Z,14.60
2023-10-10T05:58:29.589Z,14.62
2023-10-10T05:59:29.615Z,14.65
2023-10-10T06:00:29.566Z,14.65
2023-10-10T06:01:29.588Z,14.67
2023-10-10T06:02:29.698Z,14.69
2023-10-10T06:03:29.584Z,14.74
2023-10-10T06:04:29.716Z,14.74
2023-10-10T06:05:29.546Z,14.80
2023-10-10T06:06:29.495Z,14.81
2023-10-10T06:07:29.473Z,14.80
2023-10-10T06:08:29.505Z,14.81
2023-10-10T06:09:29.445Z,14.84
2023-10-10T06:10:29.425Z,14.86
2023-10-10T06:11:29.444Z,14.87
2023-10-10T06:12:29.403Z,14.91
2023-10-10T06:13:29.392Z,14.94
2023-10-10T06:14:29.410Z,14.94
2023-10-10T06:15:29.439Z,14.94
2023-10-10T06:16:29.426Z,14.93
2023-10-10T06:17:29.484Z,14.94
2023-10-10T06:18:29.508Z,14.95
2023-10-10T06:19:29.349Z,14.93
2023-10-10T06:20:29.341Z,14.93
2023-10-10T06:21:29.294Z,14.94
2023-10-10T06:22:29.269Z,14.95
2023-10-10T06:23:29.306Z,14.99
2023-10-10T06:24:29.256Z,14.99
2023-10-10T06:25:29.254Z,15.05
2023-10-10T06:26:29.246Z,15.05
2023-10-10T06:27:29.208Z,15.05
2023-10-10T06:28:29.204Z,15.05
2023-10-10T06:29:29.238Z,15.05
2023-10-10T06:30:29.164Z,15.06
2023-10-10T06:31:29.170Z,15.03
2023-10-10T06:32:29.205Z,15.02
2023-10-10T06:33:29.382Z,15.02
2023-10-10T06:34:29.124Z,15.06
2023-10-10T06:35:29.336Z,15.08
2023-10-10T06:36:29.105Z,15.09
2023-10-10T06:37:29.080Z,15.09
2023-10-10T06:38:29.204Z,15.11
2023-10-10T06:39:29.068Z,15.12
2023-10-10T06:40:29.041Z,15.13
2023-10-10T06:41:29.443Z,15.13
2023-10-10T06:42:29.093Z,15.15
2023-10-10T06:43:29.017Z,15.15
2023-10-10T06:44:29.032Z,15.12
2023-10-10T06:45:29.014Z,15.11
2023-10-10T06:46:28.960Z,15.13
2023-10-10T06:47:29.041Z,15.15
2023-10-10T06:48:29.016Z,15.17
2023-10-10T06:49:28.933Z,15.20
2023-10-10T06:50:28.932Z,15.21
2023-10-10T06:51:28.897Z,15.24
2023-10-10T06:52:29.462Z,15.24
2023-10-10T06:53:28.926Z,15.23
2023-10-10T06:54:29.239Z,15.21
2023-10-10T06:55:28.850Z,15.24
2023-10-10T06:56:28.871Z,15.24
2023-10-10T06:57:28.835Z,15.23
2023-10-10T06:58:28.818Z,15.21
2023-10-10T06:59:28.906Z,15.21
2023-10-10T07:00:28.889Z,15.21
2023-10-10T07:01:28.807Z,15.26
2023-10-10T07:02:28.819Z,15.26
2023-10-10T07:03:28.841Z,15.27
2023-10-10T07:04:28.968Z,15.35
2023-10-10T07:05:28.792Z,15.43
2023-10-10T07:06:28.700Z,15.46
2023-10-10T07:07:28.719Z,15.46
2023-10-10T07:08:28.686Z,15.49
2023-10-10T07:09:28.681Z,15.51
2023-10-10T07:10:28.649Z,15.49
2023-10-10T07:11:28.660Z,15.57
2023-10-10T07:12:28.631Z,15.63
2023-10-10T07:13:28.607Z,15.63
2023-10-10T07:14:28.656Z,15.60
2023-10-10T07:15:28.612Z,15.57
2023-10-10T07:16:28.611Z,15.57
2023-10-10T07:17:28.839Z,15.60
2023-10-10T07:18:28.606Z,15.59
2023-10-10T07:19:28.522Z,15.61
2023-10-10T07:20:28.551Z,15.66
2023-10-10T07:21:28.500Z,15.74
2023-10-10T07:22:28.486Z,15.70
2023-10-10T07:23:28.533Z,15.75
2023-10-10T07:24:28.457Z,15.81
2023-10-10T07:25:28.537Z,15.86
2023-10-10T07:26:28.457Z,15.81
2023-10-10T07:27:28.702Z,15.84
2023-10-10T07:28:28.416Z,15.85
2023-10-10T07:29:28.425Z,15.88
2023-10-10T07:30:28.388Z,15.93
2023-10-10T07:31:28.402Z,15.93
2023-10-10T07:32:28.389Z,15.89
2023-10-10T07:33:28.354Z,15.89
2023-10-10T07:34:28.325Z,15.85
2023-10-10T07:35:28.347Z,15.88
2023-10-10T07:36:28.299Z,15.94
2023-10-10T07:37:28.282Z,16.03
2023-10-10T07:38:28.326Z,16.07
2023-10-10T07:39:28.257Z,16.11
2023-10-10T07:40:28.265Z,16.14
2023-10-10T07:41:28.299Z,16.15
2023-10-10T07:42:28.227Z,16.22
2023-10-10T07:43:28.275Z,16.25
2023-10-10T07:44:28.247Z,16.33
2023-10-10T07:45:28.183Z,16.37
2023-10-10T07:46:28.177Z,16.42
2023-10-10T07:47:28.629Z,16.41
2023-10-10T07:48:28.215Z,16.44
2023-10-10T07:49:28.131Z,16.52
2023-10-10T07:50:28.262Z,16.60
2023-10-10T07:51:28.089Z,16.73
2023-10-10T07:52:28.100Z,16.81
2023-10-10T07:53:28.096Z,16.81
2023-10-10T07:54:28.069Z,16.81
2023-10-10T07:55:28.052Z,16.88
2023-10-10T07:56:28.048Z,16.96
2023-10-10T07:57:28.016Z,17.06
2023-10-10T07:58:40.954Z,17.07
2023-10-10T07:59:29.017Z,17.15
2023-10-10T08:00:28.058Z,17.22
2023-10-10T08:01:28.017Z,17.20
2023-10-10T08:02:28.006Z,17.25
2023-10-10T08:03:27.993Z,17.28
2023-10-10T08:04:27.954Z,17.30
2023-10-10T08:05:27.919Z,17.33
2023-10-10T08:06:27.921Z,17.44
2023-10-10T08:07:27.877Z,17.62
2023-10-10T08:08:27.917Z,17.84
2023-10-10T08:09:27.856Z,18.09
2023-10-10T08:10:27.841Z,18.29
2023-10-10T08:11:27.858Z,18.54
2023-10-10T08:12:27.823Z,18.87
2023-10-10T08:13:27.826Z,19.20
2023-10-10T08:14:27.804Z,19.66
2023-10-10T08:15:27.776Z,20.03
2023-10-10T08:16:27.809Z,20.46
2023-10-10T08:17:27.961Z,20.62
2023-10-10T08:18:27.771Z,20.83
2023-10-10T08:19:27.730Z,20.98
2023-10-10T08:20:27.759Z,21.20
2023-10-10T08:21:27.700Z,21.34
2023-10-10T08:22:27.693Z,21.51
2023-10-10T08:23:27.711Z,21.56
2023-10-10T08:24:27.655Z,21.79
2023-10-10T08:25:27.661Z,21.78
2023-10-10T08:26:27.796Z,21.66
2023-10-10T08:27:27.628Z,21.64
2023-10-10T08:28:27.603Z,21.51
2023-10-10T08:29:27.669Z,21.19
2023-10-10T08:30:27.574Z,20.83
2023-10-10T08:31:27.595Z,20.61
2023-10-10T08:32:27.595Z,20.25
2023-10-10T08:33:27.718Z,20.03
2023-10-10T08:34:28.276Z,19.80
2023-10-10T08:35:27.527Z,19.54
2023-10-10T08:36:27.512Z,19.47
2023-10-10T08:37:27.487Z,19.40
2023-10-10T08:38:27.518Z,19.42
2023-10-10T08:39:27.501Z,19.51
2023-10-10T08:40:27.465Z,19.76
2023-10-10T08:41:27.485Z,20.03
2023-10-10T08:42:27.642Z,20.16
2023-10-10T08:43:27.426Z,20.41
2023-10-10T08:44:27.508Z,20.64
2023-10-10T08:45:27.417Z,20.69
2023-10-10T08:46:27.391Z,20.74
2023-10-10T08:47:27.480Z,20.89
2023-10-10T08:48:27.428Z,20.81
2023-10-10T08:49:27.350Z,20.90
2023-10-10T08:50:27.356Z,20.93
2023-10-10T08:51:27.306Z,21.11
2023-10-10T08:52:27.289Z,21.20
2023-10-10T08:53:27.346Z,21.16
2023-10-10T08:54:27.395Z,21.38
2023-10-10T08:55:27.282Z,21.48
2023-10-10T08:56:27.246Z,21.74
2023-10-10T08:57:27.272Z,22.10
2023-10-10T08:58:27.214Z,22.37
2023-10-10T08:59:27.238Z,22.52
2023-10-10T09:00:27.266Z,22.52
2023-10-10T09:01:27.193Z,22.53
2023-10-10T09:02:27.173Z,22.54
2023-10-10T09:03:27.222Z,22.72
2023-10-10T09:04:27.182Z,22.75
2023-10-10T09:05:27.147Z,22.07
2023-10-10T09:06:27.103Z,21.98
2023-10-10T09:07:27.112Z,22.04
2023-10-10T09:08:27.134Z,22.34
2023-10-10T09:09:27.094Z,22.50
2023-10-10T09:10:27.047Z,22.69
2023-10-10T09:11:27.087Z,22.64
2023-10-10T09:12:27.036Z,22.64
2023-10-10T09:13:27.022Z,22.69
2023-10-10T09:14:27.029Z,22.82
2023-10-10T09:15:27.014Z,22.90
2023-10-10T09:16:27.010Z,23.19
2023-10-10T09:17:27.027Z,23.62
2023-10-10T09:18:27.545Z,23.86
2023-10-10T09:19:26.938Z,23.80
2023-10-10T09:20:34.013Z,23.94
2023-10-10T09:21:26.922Z,23.87
2023-10-10T09:22:26.899Z,23.95
2023-10-10T09:23:26.986Z,23.87
2023-10-10T09:24:26.874Z,24.02
2023-10-10T09:25:26.864Z,24.29
2023-10-10T09:26:26.857Z,24.08
2023-10-10T09:27:26.849Z,23.89
2023-10-10T09:28:26.809Z,23.92
2023-10-10T09:29:26.812Z,23.52
2023-10-10T09:30:26.835Z,23.43
2023-10-10T09:31:26.831Z,23.64
2023-10-10T09:32:26.816Z,23.40
2023-10-10T09:33:26.798Z,23.01
2023-10-10T09:34:26.734Z,22.67
2023-10-10T09:35:26.761Z,22.62
2023-10-10T09:36:26.720Z,23.01
2023-10-10T09:37:26.698Z,23.49
2023-10-10T09:38:26.776Z,24.01
2023-10-10T09:39:26.742Z,24.57
2023-10-10T09:40:26.668Z,24.92
2023-10-10T09:41:26.724Z,24.97
2023-10-10T09:42:26.635Z,25.12
2023-10-10T09:43:26.636Z,25.00
2023-10-10T09:44:26.655Z,24.17
2023-10-10T09:45:26.619Z,23.76
2023-10-10T09:46:26.612Z,23.39
2023-10-10T09:47:26.637Z,22.99
2023-10-10T09:48:26.554Z,23.40
2023-10-10T09:49:26.540Z,23.20
2023-10-10T09:50:26.579Z,23.32
2023-10-10T09:51:26.532Z,23.64
2023-10-10T09:52:26.498Z,23.89
2023-10-10T09:53:26.575Z,23.53
2023-10-10T09:54:26.567Z,22.89
2023-10-10T09:55:26.490Z,22.96
2023-10-10T09:56:26.496Z,23.38
2023-10-10T09:57:26.437Z,23.86
2023-10-10T09:58:26.444Z,24.05
2023-10-10T09:59:26.486Z,23.68
2023-10-10T10:00:27.585Z,23.38
2023-10-10T10:01:26.494Z,23.47
2023-10-10T10:02:26.401Z,23.64
2023-10-10T10:03:26.412Z,23.80
2023-10-10T10:04:26.515Z,24.12
2023-10-10T10:05:26.331Z,24.27
2023-10-10T10:06:26.307Z,23.71
2023-10-10T10:07:26.299Z,23.60
2023-10-10T10:08:26.306Z,23.76
2023-10-10T10:09:26.284Z,23.92
2023-10-10T10:10:26.261Z,24.14
2023-10-10T10:11:26.280Z,24.14
2023-10-10T10:12:26.240Z,24.01
2023-10-10T10:13:26.231Z,24.16
2023-10-10T10:14:26.482Z,24.19
2023-10-10T10:15:26.200Z,24.13
2023-10-10T10:16:26.259Z,24.00
2023-10-10T10:17:26.236Z,24.45
2023-10-10T10:18:26.219Z,24.69
2023-10-10T10:19:26.145Z,24.82
2023-10-10T10:20:26.155Z,24.94
2023-10-10T10:21:26.115Z,24.79
2023-10-10T10:22:26.098Z,24.95
2023-10-10T10:23:26.150Z,25.00
2023-10-10T10:24:26.094Z,24.73
2023-10-10T10:25:26.068Z,24.80
2023-10-10T10:26:26.088Z,25.02
2023-10-10T10:27:26.161Z,25.24
2023-10-10T10:28:26.037Z,25.50
2023-10-10T10:29:26.041Z,25.71
2023-10-10T10:30:25.997Z,25.68
2023-10-10T10:31:26.026Z,25.30
2023-10-10T10:32:26.233Z,25.20
2023-10-10T10:33:25.995Z,25.12
2023-10-10T10:34:25.949Z,25.13
2023-10-10T10:35:26.074Z,25.31
2023-10-10T10:36:25.941Z,25.42
2023-10-10T10:37:25.931Z,25.24
2023-10-10T10:38:26.192Z,25.32
2023-10-10T10:39:25.885Z,25.22
2023-10-10T10:40:25.866Z,24.92
2023-10-10T10:41:25.929Z,24.76
2023-10-10T10:42:25.850Z,24.52
2023-10-10T10:43:25.865Z,24.50
2023-10-10T10:44:25.836Z,24.64
2023-10-10T10:45:25.835Z,24.61
2023-10-10T10:46:25.813Z,24.88
2023-10-10T10:47:25.829Z,25.12
2023-10-10T10:48:25.834Z,25.20
2023-10-10T10:49:25.752Z,25.30
2023-10-10T10:50:25.792Z,25.24
2023-10-10T10:51:25.769Z,24.95
2023-10-10T10:52:25.717Z,24.95
2023-10-10T10:53:25.709Z,25.05
2023-10-10T10:54:25.695Z,25.02
2023-10-10T10:55:25.702Z,25.16
2023-10-10T10:56:25.690Z,25.27
2023-10-10T10:57:32.682Z,25.39
2023-10-10T10:58:26.631Z,25.39
2023-10-10T10:59:25.650Z,25.47
2023-10-10T11:00:25.729Z,25.24
2023-10-10T11:01:25.659Z,25.15
2023-10-10T11:02:25.713Z,25.15
2023-10-10T11:03:25.675Z,25.47
2023-10-10T11:04:25.652Z,25.59
2023-10-10T11:05:25.648Z,25.71
2023-10-10T11:06:25.583Z,25.86
2023-10-10T11:07:25.531Z,26.11
2023-10-10T11:08:25.562Z,25.75
2023-10-10T11:09:25.493Z,25.68
2023-10-10T11:10:25.501Z,25.65
2023-10-10T11:11:25.496Z,25.99
2023-10-10T11:12:25.451Z,26.09
2023-10-10T11:13:25.444Z,26.65
2023-10-10T11:14:25.446Z,26.62
2023-10-10T11:15:25.449Z,26.64
2023-10-10T11:16:25.466Z,26.24
2023-10-10T11:17:25.451Z,26.32
2023-10-10T11:18:25.641Z,26.43
2023-10-10T11:19:25.628Z,26.43
2023-10-10T11:20:25.390Z,26.01
2023-10-10T11:21:25.338Z,26.15
2023-10-10T11:22:25.329Z,25.68
2023-10-10T11:23:25.344Z,25.38
2023-10-10T11:24:25.321Z,25.34
2023-10-10T11:25:25.292Z,25.68
2023-10-10T11:26:25.300Z,25.89
2023-10-10T11:27:25.270Z,26.01
2023-10-10T11:28:25.263Z,26.54
2023-10-10T11:29:25.271Z,26.80
2023-10-10T11:30:25.545Z,26.94
2023-10-10T11:31:25.372Z,26.86
2023-10-10T11:32:25.475Z,26.44
2023-10-10T11:33:25.237Z,26.36
2023-10-10T11:34:25.176Z,26.79
2023-10-10T11:35:25.237Z,26.91
2023-10-10T11:36:25.153Z,26.87
2023-10-10T11:37:25.591Z,26.87
2023-10-10T11:38:25.389Z,26.62
2023-10-10T11:39:25.118Z,26.99
2023-10-10T11:40:25.093Z,27.77
2023-10-10T11:41:25.141Z,28.14
2023-10-10T11:42:25.090Z,28.26
2023-10-10T11:43:25.072Z,28.19
2023-10-10T11:44:25.101Z,28.58
2023-10-10T11:45:25.090Z,28.84
2023-10-10T11:46:25.064Z,28.40
2023-10-10T11:47:25.132Z,28.03
2023-10-10T11:48:25.111Z,27.58
2023-10-10T11:49:24.985Z,27.59
2023-10-10T11:50:25.044Z,27.89
2023-10-10T11:51:24.973Z,27.96
2023-10-10T11:52:24.956Z,28.03
2023-10-10T11:53:25.631Z,27.79
2023-10-10T11:54:24.925Z,28.01
2023-10-10T11:55:24.913Z,28.14
2023-10-10T11:56:24.913Z,28.38
2023-10-10T11:57:24.898Z,28.62
2023-10-10T11:58:24.883Z,28.50
2023-10-10T11:59:24.900Z,28.07
2023-10-10T12:00:27.660Z,27.79
2023-10-10T12:01:25.984Z,27.98
2023-10-10T12:02:24.847Z,27.88
2023-10-10T12:03:25.036Z,27.59
2023-10-10T12:04:24.827Z,28.03
2023-10-10T12:05:24.849Z,28.35
2023-10-10T12:06:24.780Z,28.41
2023-10-10T12:07:24.764Z,28.48
2023-10-10T12:08:24.924Z,28.66
2023-10-10T12:09:24.746Z,28.66
2023-10-10T12:10:24.736Z,28.82
2023-10-10T12:11:24.780Z,28.59
2023-10-10T12:12:24.704Z,28.84
2023-10-10T12:13:24.695Z,28.66
2023-10-10T12:14:24.722Z,28.43
2023-10-10T12:15:24.686Z,28.47
2023-10-10T12:16:25.698Z,28.63
2023-10-10T12:17:24.718Z,28.66
2023-10-10T12:18:24.738Z,28.59
2023-10-10T12:19:24.626Z,28.84
2023-10-10T12:20:24.646Z,28.84
2023-10-10T12:21:25.075Z,28.73
2023-10-10T12:22:24.581Z,28.44
2023-10-10T12:23:24.594Z,27.50
2023-10-10T12:24:24.575Z,27.20
2023-10-10T12:25:24.569Z,27.50
2023-10-10T12:26:24.569Z,27.82
2023-10-10T12:27:24.529Z,27.82
2023-10-10T12:28:24.509Z,27.85
2023-10-10T12:29:25.995Z,27.88
2023-10-10T12:30:24.488Z,27.53
2023-10-10T12:31:24.616Z,27.59
2023-10-10T12:32:25.463Z,27.80
2023-10-10T12:33:24.536Z,27.58
2023-10-10T12:34:24.451Z,27.64
2023-10-10T12:35:24.458Z,27.80
2023-10-10T12:36:24.427Z,27.74
2023-10-10T12:37:24.600Z,27.35
2023-10-10T12:38:24.412Z,26.99
2023-10-10T12:39:24.390Z,26.81
2023-10-10T12:40:24.390Z,26.37
2023-10-10T12:41:24.430Z,26.76
2023-10-10T12:42:24.336Z,27.46
2023-10-10T12:43:24.344Z,27.33
2023-10-10T12:44:24.363Z,27.21
2023-10-10T12:45:24.300Z,27.16
2023-10-10T12:46:24.332Z,26.43
2023-10-10T12:47:24.294Z,26.15
2023-10-10T12:48:24.380Z,25.99
2023-10-10T12:49:24.258Z,25.80
2023-10-10T12:50:24.252Z,25.83
2023-10-10T12:51:24.403Z,25.89
2023-10-10T12:52:24.226Z,25.99
2023-10-10T12:53:24.397Z,25.89
2023-10-10T12:54:24.186Z,25.74
2023-10-10T12:55:24.184Z,25.80
2023-10-10T12:56:24.177Z,25.87
2023-10-10T12:57:24.172Z,25.91
2023-10-10T12:58:24.157Z,25.89
2023-10-10T12:59:27.794Z,25.83
2023-10-10T13:00:24.123Z,25.79
2023-10-10T13:01:24.178Z,25.59
2023-10-10T13:02:24.118Z,25.47
2023-10-10T13:03:24.219Z,25.44
2023-10-10T13:04:24.074Z,25.49
2023-10-10T13:05:24.080Z,25.50
2023-10-10T13:06:24.469Z,25.28
2023-10-10T13:07:24.037Z,25.12
2023-10-10T13:08:24.040Z,24.98
2023-10-10T13:09:24.003Z,24.91
2023-10-10T13:10:23.989Z,24.85
2023-10-10T13:11:24.013Z,24.80
2023-10-10T13:12:23.970Z,24.82
2023-10-10T13:13:23.951Z,24.83
2023-10-10T13:14:23.939Z,24.80
2023-10-10T13:15:23.969Z,24.76
2023-10-10T13:16:23.988Z,24.79
2023-10-10T13:17:23.926Z,24.85
2023-10-10T13:18:23.986Z,24.83
2023-10-10T13:19:23.881Z,24.95
2023-10-10T13:20:23.931Z,24.98
2023-10-10T13:21:23.858Z,25.06
2023-10-10T13:22:23.831Z,24.95
2023-10-10T13:23:23.924Z,25.12
2023-10-10T13:24:23.806Z,25.16
2023-10-10T13:25:23.824Z,25.17
2023-10-10T13:26:23.862Z,25.31
2023-10-10T13:27:23.766Z,25.42
2023-10-10T13:28:23.752Z,25.39
2023-10-10T13:29:23.772Z,25.35
2023-10-10T13:30:23.736Z,25.38
2023-10-10T13:31:23.749Z,25.68
2023-10-10T13:32:23.714Z,25.75
2023-10-10T13:33:23.801Z,25.82
2023-10-10T13:34:23.737Z,25.53
2023-10-10T13:35:23.686Z,25.59
2023-10-10T13:36:23.648Z,25.62
2023-10-10T13:37:23.643Z,25.64
2023-10-10T13:38:23.635Z,25.54
2023-10-10T13:39:23.624Z,25.49
2023-10-10T13:40:23.610Z,25.37
2023-10-10T13:41:23.628Z,25.17
2023-10-10T13:42:23.577Z,25.13
2023-10-10T13:43:23.581Z,24.98
2023-10-10T13:44:23.585Z,24.85
2023-10-10T13:45:24.007Z,24.88
2023-10-10T13:46:23.575Z,24.91
2023-10-10T13:47:23.533Z,24.94
2023-10-10T13:48:23.638Z,24.90
2023-10-10T13:49:23.515Z,24.95
2023-10-10T13:50:23.489Z,24.94
2023-10-10T13:51:23.462Z,25.00
2023-10-10T13:52:23.443Z,25.00
2023-10-10T13:53:23.465Z,25.02
2023-10-10T13:54:23.417Z,24.92
2023-10-10T13:55:23.418Z,24.91
2023-10-10T13:56:23.425Z,24.94
2023-10-10T13:57:23.387Z,24.95
2023-10-10T13:58:23.381Z,24.85
2023-10-10T13:59:23.397Z,24.91
2023-10-10T14:00:23.342Z,24.88
2023-10-10T14:01:23.398Z,24.95
2023-10-10T14:02:23.384Z,24.98
2023-10-10T14:03:23.466Z,24.97
2023-10-10T14:04:23.557Z,24.95
2023-10-10T14:05:23.298Z,24.98
2023-10-10T14:06:23.262Z,24.94
2023-10-10T14:07:23.269Z,24.97
2023-10-10T14:08:23.286Z,25.01
2023-10-10T14:09:23.250Z,24.97
2023-10-10T14:10:23.218Z,24.97
2023-10-10T14:11:23.368Z,24.82
2023-10-10T14:12:23.209Z,24.87
2023-10-10T14:13:23.181Z,24.97
2023-10-10T14:14:23.206Z,25.06
2023-10-10T14:15:23.175Z,25.13
2023-10-10T14:16:23.236Z,25.20
2023-10-10T14:17:23.166Z,25.17
2023-10-10T14:18:23.156Z,25.07
2023-10-10T14:19:23.113Z,25.05
2023-10-10T14:20:23.152Z,25.06
2023-10-10T14:21:23.098Z,25.01
2023-10-10T14:22:23.077Z,24.95
2023-10-10T14:23:23.078Z,24.95
2023-10-10T14:24:23.042Z,24.97
2023-10-10T14:25:23.024Z,25.01
2023-10-10T14:26:23.041Z,24.98
2023-10-10T14:27:22.997Z,24.98
2023-10-10T14:28:22.980Z,25.00
2023-10-10T14:29:22.998Z,24.85
2023-10-10T14:30:22.962Z,24.83
2023-10-10T14:31:23.224Z,24.75
2023-10-10T14:32:37.546Z,24.76
2023-10-10T14:33:23.994Z,24.87
2023-10-10T14:34:22.900Z,24.90
2023-10-10T14:35:22.929Z,24.97
2023-10-10T14:36:22.884Z,25.13
2023-10-10T14:38:22.876Z,25.32
2023-10-10T14:39:22.840Z,25.39
2023-10-10T14:40:22.836Z,25.44
2023-10-10T14:41:22.869Z,25.47
2023-10-10T14:42:22.797Z,25.47
2023-10-10T14:43:22.799Z,25.52
2023-10-10T14:44:22.828Z,25.49
2023-10-10T14:45:22.776Z,25.31
2023-10-10T14:46:23.152Z,25.17
2023-10-10T14:47:22.784Z,25.16
2023-10-10T14:48:22.751Z,25.13
2023-10-10T14:49:22.742Z,25.16
2023-10-10T14:50:22.736Z,25.07
2023-10-10T14:51:22.685Z,25.05
2023-10-10T14:52:22.680Z,24.94
2023-10-10T14:53:22.677Z,24.88
2023-10-10T14:54:22.667Z,24.77
2023-10-10T14:55:22.641Z,24.77
2023-10-10T14:56:23.379Z,24.76
2023-10-10T14:57:22.613Z,24.47
2023-10-10T14:58:22.594Z,24.17
2023-10-10T14:59:22.655Z,23.92
2023-10-10T15:00:22.588Z,23.83
2023-10-10T15:01:22.562Z,23.83
2023-10-10T15:02:22.580Z,23.80
2023-10-10T15:03:22.612Z,23.64
2023-10-10T15:04:22.605Z,23.50
2023-10-10T15:05:22.527Z,23.45
2023-10-10T15:06:22.485Z,23.43
2023-10-10T15:07:22.523Z,23.32
2023-10-10T15:08:22.473Z,23.31
2023-10-10T15:09:22.450Z,23.20
2023-10-10T15:10:22.476Z,23.19
2023-10-10T15:11:22.454Z,23.17
2023-10-10T15:12:22.419Z,23.12
2023-10-10T15:13:22.411Z,23.07
2023-10-10T15:14:22.426Z,23.07
2023-10-10T15:15:22.372Z,23.05
2023-10-10T15:16:22.398Z,23.04
2023-10-10T15:17:22.383Z,22.97
2023-10-10T15:18:22.420Z,22.92
2023-10-10T15:19:22.318Z,22.86
2023-10-10T15:20:23.698Z,22.87
2023-10-10T15:21:29.335Z,22.84
2023-10-10T15:22:22.289Z,22.84
2023-10-10T15:23:22.316Z,22.84
2023-10-10T15:24:22.243Z,22.80
2023-10-10T15:25:22.230Z,22.74
2023-10-10T15:26:22.254Z,22.71
2023-10-10T15:27:22.232Z,22.68
2023-10-10T15:28:22.190Z,22.68
2023-10-10T15:29:22.437Z,22.69
2023-10-10T15:30:22.245Z,22.65
2023-10-10T15:31:22.168Z,22.69
2023-10-10T15:32:22.162Z,22.80
2023-10-10T15:33:22.178Z,22.82
2023-10-10T15:34:22.135Z,22.86
2023-10-10T15:35:22.120Z,22.87
2023-10-10T15:36:22.091Z,22.89
2023-10-10T15:37:22.076Z,22.94
2023-10-10T15:38:22.118Z,23.08
2023-10-10T15:39:22.048Z,23.20
2023-10-10T15:40:22.787Z,23.17
2023-10-10T15:41:22.074Z,23.14
2023-10-10T15:42:22.005Z,23.07
2023-10-10T15:43:32.258Z,23.04
2023-10-10T15:44:23.022Z,22.99
2023-10-10T15:45:22.040Z,22.96
2023-10-10T15:46:21.967Z,22.97
2023-10-10T15:47:21.984Z,22.96
2023-10-10T15:48:22.008Z,22.92
2023-10-10T15:49:35.755Z,22.89
2023-10-10T15:50:23.377Z,22.83
2023-10-10T15:51:21.905Z,22.77
2023-10-10T15:52:21.883Z,22.65
2023-10-10T15:53:21.902Z,22.56
2023-10-10T15:54:21.865Z,22.49
2023-10-10T15:55:21.850Z,22.38
2023-10-10T15:56:21.864Z,22.35
2023-10-10T15:57:21.816Z,22.34
2023-10-10T15:58:21.797Z,22.34
2023-10-10T15:59:21.830Z,22.32
2023-10-10T16:00:21.770Z,22.39
2023-10-10T16:01:21.779Z,22.62
2023-10-10T16:02:21.741Z,22.74
2023-10-10T16:03:21.815Z,22.86
2023-10-10T16:04:21.752Z,23.08
2023-10-10T16:05:21.745Z,23.19
2023-10-10T16:06:21.693Z,23.39
2023-10-10T16:07:21.691Z,23.31
2023-10-10T16:08:21.701Z,23.42
2023-10-10T16:09:21.820Z,23.50
2023-10-10T16:10:21.647Z,23.42
2023-10-10T16:11:21.685Z,23.26
2023-10-10T16:12:21.643Z,23.08
2023-10-10T16:13:21.622Z,22.86
2023-10-10T16:14:21.652Z,22.71
2023-10-10T16:15:30.513Z,22.57
2023-10-10T16:16:22.612Z,22.47
2023-10-10T16:17:21.570Z,22.31
2023-10-10T16:18:21.690Z,22.19
2023-10-10T16:19:21.539Z,22.07
2023-10-10T16:20:21.557Z,22.02
2023-10-10T16:21:21.511Z,21.99
2023-10-10T16:22:21.498Z,21.92
2023-10-10T16:23:21.501Z,21.91
2023-10-10T16:24:21.476Z,21.88
2023-10-10T16:25:21.449Z,21.78
2023-10-10T16:26:21.444Z,21.71
2023-10-10T16:27:21.437Z,21.66
2023-10-10T16:28:23.218Z,21.64
2023-10-10T16:29:21.422Z,21.63
2023-10-10T16:30:21.381Z,21.61
2023-10-10T16:31:21.426Z,21.57
2023-10-10T16:32:21.430Z,21.53
2023-10-10T16:33:21.420Z,21.51
2023-10-10T16:34:21.329Z,21.44
2023-10-10T16:35:21.373Z,21.36
2023-10-10T16:36:21.322Z,21.30
2023-10-10T16:37:21.344Z,21.30
2023-10-10T16:38:21.287Z,21.30
2023-10-10T16:39:21.313Z,21.29
2023-10-10T16:40:21.278Z,21.24
2023-10-10T16:41:21.247Z,21.19
2023-10-10T16:42:21.255Z,21.11
2023-10-10T16:43:21.209Z,21.02
2023-10-10T16:44:21.233Z,20.99
2023-10-10T16:45:21.239Z,20.98
2023-10-10T16:46:21.241Z,20.93
2023-10-10T16:47:21.175Z,20.89
2023-10-10T16:48:21.252Z,20.87
2023-10-10T16:49:21.148Z,20.84
2023-10-10T16:50:21.116Z,20.84
2023-10-10T16:51:21.114Z,20.80
2023-10-10T16:52:21.312Z,20.76
2023-10-10T16:53:21.093Z,20.71
2023-10-10T16:54:21.067Z,20.65
2023-10-10T16:55:21.051Z,20.59
2023-10-10T16:56:21.054Z,20.61
2023-10-10T16:57:21.017Z,20.59
2023-10-10T16:59:21.028Z,20.61
2023-10-10T17:00:21.004Z,20.58
2023-10-10T17:01:21.015Z,20.56
2023-10-10T17:02:20.988Z,20.54
2023-10-10T17:03:21.140Z,20.51
2023-10-10T17:04:21.084Z,20.46
2023-10-10T17:05:20.927Z,20.39
2023-10-10T17:06:20.908Z,20.38
2023-10-10T17:07:20.895Z,20.34
2023-10-10T17:08:20.890Z,20.28
2023-10-10T17:09:20.860Z,20.28